sensor_id;sensor_type;location;lat;lon;timestamp;P1;durP1;ratioP1;P2;durP2;ratioP2
51660;SDS011;37741;49.748;8.490;2023-03-01T00:01:21;9.88;;;6.75;;
51660;SDS011;37741;49.748;8.490;2023-03-01T00:03:49;11.73;;;7.63;;
51660;SDS011;37741;49.748;8.490;2023-03-01T00:06:15;11.85;;;7.85;;
51660;SDS011;37741;49.748;8.490;2023-03-01T00:08:41;9.18;;;6.90;;
51660;SDS011;37741;49.748;8.490;2023-03-01T00:11:08;10.32;;;7.72;;
51660;SDS011;37741;49.748;8.490;2023-03-01T00:13:37;10.80;;;7.85;;
51660;SDS011;37741;49.748;8.490;2023-03-01T00:16:09;11.90;;;7.72;;
51660;SDS011;37741;49.748;8.490;2023-03-01T00:18:37;10.82;;;7.25;;
51660;SDS011;37741;49.748;8.490;2023-03-01T00:21:03;8.90;;;6.78;;
51660;SDS011;37741;49.748;8.490;2023-03-01T00:23:30;12.93;;;7.70;;
51660;SDS011;37741;49.748;8.490;2023-03-01T00:25:56;10.70;;;7.63;;
51660;SDS011;37741;49.748;8.490;2023-03-01T00:28:22;10.82;;;7.57;;
51660;SDS011;37741;49.748;8.490;2023-03-01T00:30:47;10.77;;;7.53;;
51660;SDS011;37741;49.748;8.490;2023-03-01T00:33:13;9.85;;;7.47;;
51660;SDS011;37741;49.748;8.490;2023-03-01T00:35:39;11.35;;;7.47;;
51660;SDS011;37741;49.748;8.490;2023-03-01T00:38:05;10.38;;;7.53;;
51660;SDS011;37741;49.748;8.490;2023-03-01T00:40:32;10.75;;;7.32;;
51660;SDS011;37741;49.748;8.490;2023-03-01T00:42:58;10.25;;;7.43;;
51660;SDS011;37741;49.748;8.490;2023-03-01T00:45:25;10.25;;;7.50;;
51660;SDS011;37741;49.748;8.490;2023-03-01T00:47:52;12.27;;;7.55;;
51660;SDS011;37741;49.748;8.490;2023-03-01T00:50:19;11.68;;;8.00;;
51660;SDS011;37741;49.748;8.490;2023-03-01T00:52:45;11.57;;;7.57;;
51660;SDS011;37741;49.748;8.490;2023-03-01T00:55:11;11.10;;;8.63;;
51660;SDS011;37741;49.748;8.490;2023-03-01T00:57:37;11.50;;;8.02;;
51660;SDS011;37741;49.748;8.490;2023-03-01T01:00:04;9.85;;;7.38;;
51660;SDS011;37741;49.748;8.490;2023-03-01T01:02:32;11.55;;;8.07;;
51660;SDS011;37741;49.748;8.490;2023-03-01T01:04:58;11.80;;;7.53;;
51660;SDS011;37741;49.748;8.490;2023-03-01T01:07:24;11.18;;;8.10;;
51660;SDS011;37741;49.748;8.490;2023-03-01T01:09:50;11.25;;;8.55;;
51660;SDS011;37741;49.748;8.490;2023-03-01T01:12:15;10.20;;;7.25;;
51660;SDS011;37741;49.748;8.490;2023-03-01T01:14:41;11.35;;;8.27;;
51660;SDS011;37741;49.748;8.490;2023-03-01T01:17:06;10.55;;;7.75;;
51660;SDS011;37741;49.748;8.490;2023-03-01T01:19:32;12.00;;;8.48;;
51660;SDS011;37741;49.748;8.490;2023-03-01T01:21:58;12.77;;;8.18;;
51660;SDS011;37741;49.748;8.490;2023-03-01T01:24:23;11.25;;;7.72;;
51660;SDS011;37741;49.748;8.490;2023-03-01T01:26:49;10.75;;;7.85;;
51660;SDS011;37741;49.748;8.490;2023-03-01T01:29:14;11.55;;;8.27;;
51660;SDS011;37741;49.748;8.490;2023-03-01T01:31:41;11.90;;;7.80;;
51660;SDS011;37741;49.748;8.490;2023-03-01T01:34:07;13.43;;;8.85;;
51660;SDS011;37741;49.748;8.490;2023-03-01T01:36:37;11.88;;;8.73;;
51660;SDS011;37741;49.748;8.490;2023-03-01T01:39:03;10.50;;;7.75;;
51660;SDS011;37741;49.748;8.490;2023-03-01T01:41:29;12.75;;;7.88;;
51660;SDS011;37741;49.748;8.490;2023-03-01T01:46:36;12.48;;;8.15;;
51660;SDS011;37741;49.748;8.490;2023-03-01T01:49:16;11.68;;;8.02;;
51660;SDS011;37741;49.748;8.490;2023-03-01T01:52:07;10.77;;;7.72;;
51660;SDS011;37741;49.748;8.490;2023-03-01T01:54:47;12.98;;;8.70;;
51660;SDS011;37741;49.748;8.490;2023-03-01T01:57:19;13.70;;;8.70;;
51660;SDS011;37741;49.748;8.490;2023-03-01T01:59:51;10.07;;;7.93;;
51660;SDS011;37741;49.748;8.490;2023-03-01T02:02:19;12.65;;;8.75;;
51660;SDS011;37741;49.748;8.490;2023-03-01T02:04:46;11.55;;;8.27;;
51660;SDS011;37741;49.748;8.490;2023-03-01T02:07:14;9.60;;;8.05;;
51660;SDS011;37741;49.748;8.490;2023-03-01T02:09:45;12.82;;;8.65;;
51660;SDS011;37741;49.748;8.490;2023-03-01T02:12:14;11.25;;;8.38;;
51660;SDS011;37741;49.748;8.490;2023-03-01T02:14:42;14.13;;;8.98;;
51660;SDS011;37741;49.748;8.490;2023-03-01T02:17:08;12.32;;;8.25;;
51660;SDS011;37741;49.748;8.490;2023-03-01T02:22:22;12.55;;;8.88;;
51660;SDS011;37741;49.748;8.490;2023-03-01T02:27:56;14.63;;;9.18;;
51660;SDS011;37741;49.748;8.490;2023-03-01T02:30:30;12.82;;;8.23;;
51660;SDS011;37741;49.748;8.490;2023-03-01T02:32:57;13.60;;;9.27;;
51660;SDS011;37741;49.748;8.490;2023-03-01T02:35:27;12.75;;;9.02;;
51660;SDS011;37741;49.748;8.490;2023-03-01T02:37:59;13.87;;;8.93;;
51660;SDS011;37741;49.748;8.490;2023-03-01T02:40:26;16.27;;;9.10;;
51660;SDS011;37741;49.748;8.490;2023-03-01T02:42:56;13.38;;;9.88;;
51660;SDS011;37741;49.748;8.490;2023-03-01T02:45:23;14.82;;;9.95;;
51660;SDS011;37741;49.748;8.490;2023-03-01T02:47:49;12.85;;;9.57;;
51660;SDS011;37741;49.748;8.490;2023-03-01T02:50:19;13.85;;;9.60;;
51660;SDS011;37741;49.748;8.490;2023-03-01T02:56:00;14.68;;;9.85;;
51660;SDS011;37741;49.748;8.490;2023-03-01T02:58:26;14.00;;;10.07;;
51660;SDS011;37741;49.748;8.490;2023-03-01T03:00:52;13.40;;;9.18;;
51660;SDS011;37741;49.748;8.490;2023-03-01T03:03:19;12.30;;;9.65;;
51660;SDS011;37741;49.748;8.490;2023-03-01T03:05:45;13.57;;;9.25;;
51660;SDS011;37741;49.748;8.490;2023-03-01T03:08:13;16.38;;;9.98;;
51660;SDS011;37741;49.748;8.490;2023-03-01T03:10:41;12.57;;;9.73;;
51660;SDS011;37741;49.748;8.490;2023-03-01T03:13:12;13.87;;;10.07;;
51660;SDS011;37741;49.748;8.490;2023-03-01T03:15:39;14.53;;;10.23;;
51660;SDS011;37741;49.748;8.490;2023-03-01T03:18:07;13.77;;;9.73;;
51660;SDS011;37741;49.748;8.490;2023-03-01T03:20:36;17.05;;;10.60;;
51660;SDS011;37741;49.748;8.490;2023-03-01T03:23:02;13.87;;;9.97;;
51660;SDS011;37741;49.748;8.490;2023-03-01T03:25:28;12.32;;;9.25;;
51660;SDS011;37741;49.748;8.490;2023-03-01T03:27:55;13.95;;;9.52;;
51660;SDS011;37741;49.748;8.490;2023-03-01T03:30:25;15.13;;;9.93;;
51660;SDS011;37741;49.748;8.490;2023-03-01T03:32:55;14.02;;;9.32;;
51660;SDS011;37741;49.748;8.490;2023-03-01T03:35:27;12.73;;;9.32;;
51660;SDS011;37741;49.748;8.490;2023-03-01T03:37:58;14.43;;;10.45;;
51660;SDS011;37741;49.748;8.490;2023-03-01T03:40:35;13.07;;;10.07;;
51660;SDS011;37741;49.748;8.490;2023-03-01T03:43:03;16.40;;;10.33;;
51660;SDS011;37741;49.748;8.490;2023-03-01T03:45:31;14.43;;;10.15;;
51660;SDS011;37741;49.748;8.490;2023-03-01T03:47:58;14.75;;;9.65;;
51660;SDS011;37741;49.748;8.490;2023-03-01T03:50:24;14.95;;;9.52;;
51660;SDS011;37741;49.748;8.490;2023-03-01T03:52:51;14.27;;;9.93;;
51660;SDS011;37741;49.748;8.490;2023-03-01T03:55:16;13.68;;;10.75;;
51660;SDS011;37741;49.748;8.490;2023-03-01T03:57:44;14.57;;;9.70;;
51660;SDS011;37741;49.748;8.490;2023-03-01T04:00:17;14.43;;;10.43;;
51660;SDS011;37741;49.748;8.490;2023-03-01T04:02:44;15.23;;;9.40;;
51660;SDS011;37741;49.748;8.490;2023-03-01T04:05:14;12.55;;;9.80;;
51660;SDS011;37741;49.748;8.490;2023-03-01T04:07:42;13.67;;;9.83;;
51660;SDS011;37741;49.748;8.490;2023-03-01T04:10:09;13.07;;;9.63;;
51660;SDS011;37741;49.748;8.490;2023-03-01T04:12:37;13.40;;;9.80;;
51660;SDS011;37741;49.748;8.490;2023-03-01T04:15:03;14.65;;;9.55;;
51660;SDS011;37741;49.748;8.490;2023-03-01T04:17:37;16.13;;;10.45;;
51660;SDS011;37741;49.748;8.490;2023-03-01T04:20:13;14.02;;;10.45;;
51660;SDS011;37741;49.748;8.490;2023-03-01T04:22:49;14.43;;;9.75;;
51660;SDS011;37741;49.748;8.490;2023-03-01T04:25:15;15.23;;;11.13;;
51660;SDS011;37741;49.748;8.490;2023-03-01T04:27:41;15.40;;;11.17;;
51660;SDS011;37741;49.748;8.490;2023-03-01T04:30:07;15.37;;;10.63;;
51660;SDS011;37741;49.748;8.490;2023-03-01T04:32:33;16.60;;;10.07;;
51660;SDS011;37741;49.748;8.490;2023-03-01T04:34:59;14.63;;;10.85;;
51660;SDS011;37741;49.748;8.490;2023-03-01T04:37:25;16.08;;;9.57;;
51660;SDS011;37741;49.748;8.490;2023-03-01T04:39:51;12.63;;;9.43;;
51660;SDS011;37741;49.748;8.490;2023-03-01T04:42:17;16.42;;;10.80;;
51660;SDS011;37741;49.748;8.490;2023-03-01T04:44:43;14.63;;;9.80;;
51660;SDS011;37741;49.748;8.490;2023-03-01T04:47:09;14.30;;;10.47;;
51660;SDS011;37741;49.748;8.490;2023-03-01T04:49:35;15.43;;;10.88;;
51660;SDS011;37741;49.748;8.490;2023-03-01T04:52:02;14.65;;;9.93;;
51660;SDS011;37741;49.748;8.490;2023-03-01T04:54:29;15.27;;;10.50;;
51660;SDS011;37741;49.748;8.490;2023-03-01T04:56:59;15.00;;;10.07;;
51660;SDS011;37741;49.748;8.490;2023-03-01T04:59:25;14.43;;;9.80;;
51660;SDS011;37741;49.748;8.490;2023-03-01T05:01:51;14.40;;;9.93;;
51660;SDS011;37741;49.748;8.490;2023-03-01T05:04:20;15.27;;;10.47;;
51660;SDS011;37741;49.748;8.490;2023-03-01T05:06:46;16.00;;;10.10;;
51660;SDS011;37741;49.748;8.490;2023-03-01T05:09:12;13.17;;;9.70;;
51660;SDS011;37741;49.748;8.490;2023-03-01T05:11:38;13.10;;;9.52;;
51660;SDS011;37741;49.748;8.490;2023-03-01T05:14:07;14.50;;;10.90;;
51660;SDS011;37741;49.748;8.490;2023-03-01T05:16:34;14.47;;;10.57;;
51660;SDS011;37741;49.748;8.490;2023-03-01T05:19:01;14.47;;;10.63;;
51660;SDS011;37741;49.748;8.490;2023-03-01T05:21:36;14.97;;;10.07;;
51660;SDS011;37741;49.748;8.490;2023-03-01T05:24:22;14.35;;;9.82;;
51660;SDS011;37741;49.748;8.490;2023-03-01T05:26:48;15.97;;;10.67;;
51660;SDS011;37741;49.748;8.490;2023-03-01T05:29:16;14.23;;;9.90;;
51660;SDS011;37741;49.748;8.490;2023-03-01T05:31:43;15.10;;;10.83;;
51660;SDS011;37741;49.748;8.490;2023-03-01T05:34:08;15.93;;;10.32;;
51660;SDS011;37741;49.748;8.490;2023-03-01T05:36:34;14.65;;;10.77;;
51660;SDS011;37741;49.748;8.490;2023-03-01T05:38:59;14.70;;;10.55;;
51660;SDS011;37741;49.748;8.490;2023-03-01T05:41:25;14.40;;;10.57;;
51660;SDS011;37741;49.748;8.490;2023-03-01T05:43:51;15.20;;;10.68;;
51660;SDS011;37741;49.748;8.490;2023-03-01T05:46:16;13.40;;;10.48;;
51660;SDS011;37741;49.748;8.490;2023-03-01T05:48:42;17.30;;;11.20;;
51660;SDS011;37741;49.748;8.490;2023-03-01T05:51:08;12.95;;;10.57;;
51660;SDS011;37741;49.748;8.490;2023-03-01T05:53:34;16.25;;;10.85;;
51660;SDS011;37741;49.748;8.490;2023-03-01T05:55:59;18.07;;;11.13;;
51660;SDS011;37741;49.748;8.490;2023-03-01T05:58:28;15.80;;;11.38;;
51660;SDS011;37741;49.748;8.490;2023-03-01T06:00:54;14.43;;;11.83;;
51660;SDS011;37741;49.748;8.490;2023-03-01T06:03:20;14.47;;;10.53;;
51660;SDS011;37741;49.748;8.490;2023-03-01T06:05:45;14.57;;;11.18;;
51660;SDS011;37741;49.748;8.490;2023-03-01T06:08:11;18.67;;;11.20;;
51660;SDS011;37741;49.748;8.490;2023-03-01T06:10:37;18.73;;;12.88;;
51660;SDS011;37741;49.748;8.490;2023-03-01T06:13:03;18.20;;;11.20;;
51660;SDS011;37741;49.748;8.490;2023-03-01T06:15:29;14.40;;;11.17;;
51660;SDS011;37741;49.748;8.490;2023-03-01T06:17:55;15.43;;;11.40;;
51660;SDS011;37741;49.748;8.490;2023-03-01T06:20:24;15.70;;;11.00;;
51660;SDS011;37741;49.748;8.490;2023-03-01T06:22:51;18.17;;;11.53;;
51660;SDS011;37741;49.748;8.490;2023-03-01T06:25:18;17.23;;;10.88;;
51660;SDS011;37741;49.748;8.490;2023-03-01T06:27:46;18.25;;;12.65;;
51660;SDS011;37741;49.748;8.490;2023-03-01T06:30:14;16.70;;;11.43;;
51660;SDS011;37741;49.748;8.490;2023-03-01T06:32:41;18.10;;;11.37;;
51660;SDS011;37741;49.748;8.490;2023-03-01T06:35:08;17.47;;;11.90;;
51660;SDS011;37741;49.748;8.490;2023-03-01T06:37:39;24.03;;;13.13;;
51660;SDS011;37741;49.748;8.490;2023-03-01T06:40:05;17.90;;;11.47;;
51660;SDS011;37741;49.748;8.490;2023-03-01T06:42:34;15.33;;;11.43;;
51660;SDS011;37741;49.748;8.490;2023-03-01T06:45:00;18.30;;;11.73;;
51660;SDS011;37741;49.748;8.490;2023-03-01T06:47:25;19.90;;;13.83;;
51660;SDS011;37741;49.748;8.490;2023-03-01T06:49:51;16.70;;;11.63;;
51660;SDS011;37741;49.748;8.490;2023-03-01T06:52:16;15.80;;;11.10;;
51660;SDS011;37741;49.748;8.490;2023-03-01T06:54:42;18.00;;;12.60;;
51660;SDS011;37741;49.748;8.490;2023-03-01T06:57:08;18.37;;;12.80;;
51660;SDS011;37741;49.748;8.490;2023-03-01T06:59:33;17.10;;;12.00;;
51660;SDS011;37741;49.748;8.490;2023-03-01T07:01:59;20.10;;;13.20;;
51660;SDS011;37741;49.748;8.490;2023-03-01T07:04:24;18.23;;;12.48;;
51660;SDS011;37741;49.748;8.490;2023-03-01T07:06:53;19.07;;;13.00;;
51660;SDS011;37741;49.748;8.490;2023-03-01T07:09:20;20.07;;;12.50;;
51660;SDS011;37741;49.748;8.490;2023-03-01T07:11:47;19.20;;;12.60;;
51660;SDS011;37741;49.748;8.490;2023-03-01T07:14:13;21.10;;;13.02;;
51660;SDS011;37741;49.748;8.490;2023-03-01T07:16:39;20.70;;;13.00;;
51660;SDS011;37741;49.748;8.490;2023-03-01T07:19:04;17.33;;;11.90;;
51660;SDS011;37741;49.748;8.490;2023-03-01T07:21:30;21.87;;;15.10;;
51660;SDS011;37741;49.748;8.490;2023-03-01T07:23:56;21.33;;;13.10;;
51660;SDS011;37741;49.748;8.490;2023-03-01T07:26:21;19.20;;;12.53;;
51660;SDS011;37741;49.748;8.490;2023-03-01T07:28:47;19.65;;;13.25;;
51660;SDS011;37741;49.748;8.490;2023-03-01T07:31:13;23.00;;;13.53;;
51660;SDS011;37741;49.748;8.490;2023-03-01T07:33:38;21.70;;;13.15;;
51660;SDS011;37741;49.748;8.490;2023-03-01T07:36:04;21.17;;;13.60;;
51660;SDS011;37741;49.748;8.490;2023-03-01T07:38:31;17.60;;;11.95;;
51660;SDS011;37741;49.748;8.490;2023-03-01T07:40:58;17.90;;;12.97;;
51660;SDS011;37741;49.748;8.490;2023-03-01T07:43:25;22.67;;;13.95;;
51660;SDS011;37741;49.748;8.490;2023-03-01T07:45:51;19.08;;;13.55;;
51660;SDS011;37741;49.748;8.490;2023-03-01T07:48:17;17.85;;;12.88;;
51660;SDS011;37741;49.748;8.490;2023-03-01T07:50:42;19.10;;;13.23;;
51660;SDS011;37741;49.748;8.490;2023-03-01T07:53:08;19.30;;;12.48;;
51660;SDS011;37741;49.748;8.490;2023-03-01T07:55:35;19.02;;;13.80;;
51660;SDS011;37741;49.748;8.490;2023-03-01T07:58:00;18.77;;;13.83;;
51660;SDS011;37741;49.748;8.490;2023-03-01T08:00:26;21.00;;;13.73;;
51660;SDS011;37741;49.748;8.490;2023-03-01T08:02:52;20.47;;;14.23;;
51660;SDS011;37741;49.748;8.490;2023-03-01T08:05:17;20.40;;;13.10;;
51660;SDS011;37741;49.748;8.490;2023-03-01T08:07:43;17.98;;;13.90;;
51660;SDS011;37741;49.748;8.490;2023-03-01T08:10:10;18.70;;;14.07;;
51660;SDS011;37741;49.748;8.490;2023-03-01T08:12:36;19.23;;;12.70;;
51660;SDS011;37741;49.748;8.490;2023-03-01T08:15:01;20.80;;;13.43;;
51660;SDS011;37741;49.748;8.490;2023-03-01T08:17:27;21.90;;;13.57;;
51660;SDS011;37741;49.748;8.490;2023-03-01T08:19:53;20.40;;;15.97;;
51660;SDS011;37741;49.748;8.490;2023-03-01T08:22:18;17.48;;;13.25;;
51660;SDS011;37741;49.748;8.490;2023-03-01T08:24:44;20.70;;;13.40;;
51660;SDS011;37741;49.748;8.490;2023-03-01T08:27:10;17.60;;;12.37;;
51660;SDS011;37741;49.748;8.490;2023-03-01T08:29:37;19.10;;;12.90;;
51660;SDS011;37741;49.748;8.490;2023-03-01T08:32:02;18.10;;;13.50;;
51660;SDS011;37741;49.748;8.490;2023-03-01T08:34:28;16.00;;;11.87;;
51660;SDS011;37741;49.748;8.490;2023-03-01T08:36:54;18.07;;;12.50;;
51660;SDS011;37741;49.748;8.490;2023-03-01T08:39:19;23.87;;;13.47;;
51660;SDS011;37741;49.748;8.490;2023-03-01T08:41:46;18.17;;;13.20;;
51660;SDS011;37741;49.748;8.490;2023-03-01T08:44:12;20.40;;;13.10;;
51660;SDS011;37741;49.748;8.490;2023-03-01T08:46:41;16.93;;;13.30;;
51660;SDS011;37741;49.748;8.490;2023-03-01T08:49:08;19.38;;;13.27;;
51660;SDS011;37741;49.748;8.490;2023-03-01T08:51:36;16.93;;;12.93;;
51660;SDS011;37741;49.748;8.490;2023-03-01T08:54:05;22.87;;;13.60;;
51660;SDS011;37741;49.748;8.490;2023-03-01T08:56:34;25.30;;;14.10;;
51660;SDS011;37741;49.748;8.490;2023-03-01T08:59:00;18.90;;;13.27;;
51660;SDS011;37741;49.748;8.490;2023-03-01T09:01:26;18.17;;;13.50;;
51660;SDS011;37741;49.748;8.490;2023-03-01T09:03:51;20.30;;;13.65;;
51660;SDS011;37741;49.748;8.490;2023-03-01T09:06:17;17.33;;;12.57;;
51660;SDS011;37741;49.748;8.490;2023-03-01T09:08:43;18.98;;;12.93;;
51660;SDS011;37741;49.748;8.490;2023-03-01T09:11:12;29.90;;;14.10;;
51660;SDS011;37741;49.748;8.490;2023-03-01T09:13:41;18.87;;;13.00;;
51660;SDS011;37741;49.748;8.490;2023-03-01T09:16:07;16.73;;;12.45;;
51660;SDS011;37741;49.748;8.490;2023-03-01T09:18:33;18.27;;;13.20;;
51660;SDS011;37741;49.748;8.490;2023-03-01T09:21:01;19.38;;;13.75;;
51660;SDS011;37741;49.748;8.490;2023-03-01T09:23:32;18.83;;;13.82;;
51660;SDS011;37741;49.748;8.490;2023-03-01T09:25:59;19.77;;;14.55;;
51660;SDS011;37741;49.748;8.490;2023-03-01T09:28:24;21.95;;;13.15;;
51660;SDS011;37741;49.748;8.490;2023-03-01T09:30:50;20.15;;;13.13;;
51660;SDS011;37741;49.748;8.490;2023-03-01T09:33:15;19.92;;;13.43;;
51660;SDS011;37741;49.748;8.490;2023-03-01T09:35:41;21.15;;;13.98;;
51660;SDS011;37741;49.748;8.490;2023-03-01T09:38:11;17.88;;;12.75;;
51660;SDS011;37741;49.748;8.490;2023-03-01T09:40:41;21.05;;;13.82;;
51660;SDS011;37741;49.748;8.490;2023-03-01T09:43:12;19.27;;;13.77;;
51660;SDS011;37741;49.748;8.490;2023-03-01T09:45:46;20.42;;;14.27;;
51660;SDS011;37741;49.748;8.490;2023-03-01T09:48:18;21.63;;;13.43;;
51660;SDS011;37741;49.748;8.490;2023-03-01T09:50:47;19.67;;;14.50;;
51660;SDS011;37741;49.748;8.490;2023-03-01T09:53:13;19.33;;;14.02;;
51660;SDS011;37741;49.748;8.490;2023-03-01T09:56:02;19.00;;;13.75;;
51660;SDS011;37741;49.748;8.490;2023-03-01T10:01:16;19.95;;;13.88;;
51660;SDS011;37741;49.748;8.490;2023-03-01T10:07:12;20.83;;;13.57;;
51660;SDS011;37741;49.748;8.490;2023-03-01T10:09:35;19.77;;;13.70;;
51660;SDS011;37741;49.748;8.490;2023-03-01T10:12:04;22.48;;;14.38;;
51660;SDS011;37741;49.748;8.490;2023-03-01T10:15:18;20.52;;;14.40;;
51660;SDS011;37741;49.748;8.490;2023-03-01T10:17:48;19.67;;;13.65;;
51660;SDS011;37741;49.748;8.490;2023-03-01T10:22:49;20.75;;;13.93;;
51660;SDS011;37741;49.748;8.490;2023-03-01T10:30:50;22.30;;;13.93;;
51660;SDS011;37741;49.748;8.490;2023-03-01T10:33:17;21.05;;;15.23;;
51660;SDS011;37741;49.748;8.490;2023-03-01T10:35:50;21.23;;;14.27;;
51660;SDS011;37741;49.748;8.490;2023-03-01T10:38:16;22.65;;;13.93;;
51660;SDS011;37741;49.748;8.490;2023-03-01T10:43:25;20.08;;;14.18;;
51660;SDS011;37741;49.748;8.490;2023-03-01T10:45:53;21.10;;;14.18;;
51660;SDS011;37741;49.748;8.490;2023-03-01T10:48:25;21.50;;;15.18;;
51660;SDS011;37741;49.748;8.490;2023-03-01T10:56:03;20.88;;;14.57;;
51660;SDS011;37741;49.748;8.490;2023-03-01T10:58:34;24.13;;;14.95;;
51660;SDS011;37741;49.748;8.490;2023-03-01T11:01:43;19.30;;;15.60;;
51660;SDS011;37741;49.748;8.490;2023-03-01T11:06:41;22.08;;;15.48;;
51660;SDS011;37741;49.748;8.490;2023-03-01T11:09:14;22.00;;;14.98;;
51660;SDS011;37741;49.748;8.490;2023-03-01T11:11:42;21.58;;;14.50;;
51660;SDS011;37741;49.748;8.490;2023-03-01T11:14:18;23.98;;;16.23;;
51660;SDS011;37741;49.748;8.490;2023-03-01T11:16:49;23.85;;;14.93;;
51660;SDS011;37741;49.748;8.490;2023-03-01T11:19:27;22.52;;;15.25;;
51660;SDS011;37741;49.748;8.490;2023-03-01T11:22:01;24.50;;;15.23;;
51660;SDS011;37741;49.748;8.490;2023-03-01T11:24:41;23.48;;;15.55;;
51660;SDS011;37741;49.748;8.490;2023-03-01T11:27:19;23.25;;;15.93;;
51660;SDS011;37741;49.748;8.490;2023-03-01T11:29:54;22.35;;;17.13;;
51660;SDS011;37741;49.748;8.490;2023-03-01T11:32:24;24.35;;;16.13;;
51660;SDS011;37741;49.748;8.490;2023-03-01T11:40:16;22.23;;;16.88;;
51660;SDS011;37741;49.748;8.490;2023-03-01T11:42:54;20.38;;;15.65;;
51660;SDS011;37741;49.748;8.490;2023-03-01T11:45:29;24.77;;;16.33;;
51660;SDS011;37741;49.748;8.490;2023-03-01T11:48:27;24.02;;;15.68;;
51660;SDS011;37741;49.748;8.490;2023-03-01T11:51:22;22.08;;;16.20;;
51660;SDS011;37741;49.748;8.490;2023-03-01T11:56:55;19.42;;;14.77;;
51660;SDS011;37741;49.748;8.490;2023-03-01T12:05:03;23.13;;;15.38;;
51660;SDS011;37741;49.748;8.490;2023-03-01T12:16:22;18.60;;;13.98;;
51660;SDS011;37741;49.748;8.490;2023-03-01T12:27:17;19.27;;;14.52;;
51660;SDS011;37741;49.748;8.490;2023-03-01T12:35:42;20.02;;;13.80;;
51660;SDS011;37741;49.748;8.490;2023-03-01T12:46:37;19.85;;;13.50;;
51660;SDS011;37741;49.748;8.490;2023-03-01T12:49:26;20.42;;;12.95;;
51660;SDS011;37741;49.748;8.490;2023-03-01T12:51:58;20.83;;;13.43;;
51660;SDS011;37741;49.748;8.490;2023-03-01T12:54:35;19.33;;;13.30;;
51660;SDS011;37741;49.748;8.490;2023-03-01T12:57:37;16.10;;;11.95;;
51660;SDS011;37741;49.748;8.490;2023-03-01T13:02:40;18.83;;;12.30;;
51660;SDS011;37741;49.748;8.490;2023-03-01T13:05:19;13.70;;;10.25;;
51660;SDS011;37741;49.748;8.490;2023-03-01T13:08:07;18.17;;;11.65;;
51660;SDS011;37741;49.748;8.490;2023-03-01T13:10:49;16.25;;;11.18;;
51660;SDS011;37741;49.748;8.490;2023-03-01T13:13:23;16.35;;;11.43;;
51660;SDS011;37741;49.748;8.490;2023-03-01T13:15:50;17.70;;;11.00;;
51660;SDS011;37741;49.748;8.490;2023-03-01T13:20:46;13.73;;;10.73;;
51660;SDS011;37741;49.748;8.490;2023-03-01T13:31:00;16.30;;;11.20;;
51660;SDS011;37741;49.748;8.490;2023-03-01T13:35:52;18.23;;;11.73;;
51660;SDS011;37741;49.748;8.490;2023-03-01T13:41:13;14.43;;;10.73;;
51660;SDS011;37741;49.748;8.490;2023-03-01T13:43:43;14.38;;;10.55;;
51660;SDS011;37741;49.748;8.490;2023-03-01T13:46:16;15.70;;;10.95;;
51660;SDS011;37741;49.748;8.490;2023-03-01T13:48:50;17.75;;;10.68;;
51660;SDS011;37741;49.748;8.490;2023-03-01T13:51:23;12.85;;;9.70;;
51660;SDS011;37741;49.748;8.490;2023-03-01T13:53:51;13.82;;;9.57;;
51660;SDS011;37741;49.748;8.490;2023-03-01T13:56:19;13.45;;;9.77;;
51660;SDS011;37741;49.748;8.490;2023-03-01T13:59:13;16.65;;;10.27;;
51660;SDS011;37741;49.748;8.490;2023-03-01T14:01:43;15.65;;;10.00;;
51660;SDS011;37741;49.748;8.490;2023-03-01T14:04:20;12.55;;;10.45;;
51660;SDS011;37741;49.748;8.490;2023-03-01T14:07:13;14.80;;;9.77;;
51660;SDS011;37741;49.748;8.490;2023-03-01T14:09:53;13.10;;;9.77;;
51660;SDS011;37741;49.748;8.490;2023-03-01T14:15:47;15.93;;;9.93;;
51660;SDS011;37741;49.748;8.490;2023-03-01T14:20:44;16.65;;;8.82;;
51660;SDS011;37741;49.748;8.490;2023-03-01T14:23:17;14.10;;;10.45;;
51660;SDS011;37741;49.748;8.490;2023-03-01T14:25:48;15.32;;;9.38;;
51660;SDS011;37741;49.748;8.490;2023-03-01T14:28:41;12.98;;;10.05;;
51660;SDS011;37741;49.748;8.490;2023-03-01T14:34:04;14.10;;;9.35;;
51660;SDS011;37741;49.748;8.490;2023-03-01T14:36:31;13.50;;;9.85;;
51660;SDS011;37741;49.748;8.490;2023-03-01T14:38:59;14.98;;;10.27;;
51660;SDS011;37741;49.748;8.490;2023-03-01T14:41:31;16.20;;;8.95;;
51660;SDS011;37741;49.748;8.490;2023-03-01T14:44:00;13.40;;;8.27;;
51660;SDS011;37741;49.748;8.490;2023-03-01T14:46:31;12.77;;;8.85;;
51660;SDS011;37741;49.748;8.490;2023-03-01T14:49:15;12.60;;;8.65;;
51660;SDS011;37741;49.748;8.490;2023-03-01T14:51:57;13.50;;;9.55;;
51660;SDS011;37741;49.748;8.490;2023-03-01T14:54:27;13.48;;;8.90;;
51660;SDS011;37741;49.748;8.490;2023-03-01T14:57:01;12.90;;;8.90;;
51660;SDS011;37741;49.748;8.490;2023-03-01T14:59:27;14.63;;;9.98;;
51660;SDS011;37741;49.748;8.490;2023-03-01T15:01:53;12.13;;;8.63;;
51660;SDS011;37741;49.748;8.490;2023-03-01T15:04:22;13.40;;;8.85;;
51660;SDS011;37741;49.748;8.490;2023-03-01T15:06:55;10.98;;;8.80;;
51660;SDS011;37741;49.748;8.490;2023-03-01T15:09:29;12.30;;;9.63;;
51660;SDS011;37741;49.748;8.490;2023-03-01T15:11:57;14.05;;;8.35;;
51660;SDS011;37741;49.748;8.490;2023-03-01T15:14:27;11.35;;;8.40;;
51660;SDS011;37741;49.748;8.490;2023-03-01T15:16:54;10.80;;;8.48;;
51660;SDS011;37741;49.748;8.490;2023-03-01T15:19:20;12.50;;;8.32;;
51660;SDS011;37741;49.748;8.490;2023-03-01T15:21:51;11.73;;;7.93;;
51660;SDS011;37741;49.748;8.490;2023-03-01T15:24:17;14.20;;;9.48;;
51660;SDS011;37741;49.748;8.490;2023-03-01T15:29:20;12.90;;;8.77;;
51660;SDS011;37741;49.748;8.490;2023-03-01T15:31:55;10.48;;;7.88;;
51660;SDS011;37741;49.748;8.490;2023-03-01T15:34:29;12.68;;;8.65;;
51660;SDS011;37741;49.748;8.490;2023-03-01T15:36:57;9.38;;;7.18;;
51660;SDS011;37741;49.748;8.490;2023-03-01T15:44:34;13.20;;;8.57;;
51660;SDS011;37741;49.748;8.490;2023-03-01T15:47:01;10.25;;;7.43;;
51660;SDS011;37741;49.748;8.490;2023-03-01T15:49:51;10.25;;;7.85;;
51660;SDS011;37741;49.748;8.490;2023-03-01T15:52:52;11.40;;;8.07;;
51660;SDS011;37741;49.748;8.490;2023-03-01T15:55:18;9.20;;;7.72;;
51660;SDS011;37741;49.748;8.490;2023-03-01T15:57:46;12.93;;;7.90;;
51660;SDS011;37741;49.748;8.490;2023-03-01T16:00:12;11.48;;;8.35;;
51660;SDS011;37741;49.748;8.490;2023-03-01T16:02:40;11.45;;;7.82;;
51660;SDS011;37741;49.748;8.490;2023-03-01T16:05:15;10.70;;;7.28;;
51660;SDS011;37741;49.748;8.490;2023-03-01T16:07:44;11.40;;;8.85;;
51660;SDS011;37741;49.748;8.490;2023-03-01T16:10:10;12.57;;;8.35;;
51660;SDS011;37741;49.748;8.490;2023-03-01T16:12:35;12.38;;;8.30;;
51660;SDS011;37741;49.748;8.490;2023-03-01T16:15:01;10.20;;;7.65;;
51660;SDS011;37741;49.748;8.490;2023-03-01T16:17:27;11.95;;;7.72;;
51660;SDS011;37741;49.748;8.490;2023-03-01T16:19:53;11.75;;;8.70;;
51660;SDS011;37741;49.748;8.490;2023-03-01T16:22:18;9.70;;;7.18;;
51660;SDS011;37741;49.748;8.490;2023-03-01T16:24:49;10.98;;;7.82;;
51660;SDS011;37741;49.748;8.490;2023-03-01T16:27:15;12.13;;;7.68;;
51660;SDS011;37741;49.748;8.490;2023-03-01T16:29:40;12.82;;;9.45;;
51660;SDS011;37741;49.748;8.490;2023-03-01T16:32:06;11.80;;;7.53;;
51660;SDS011;37741;49.748;8.490;2023-03-01T16:34:32;11.80;;;7.90;;
51660;SDS011;37741;49.748;8.490;2023-03-01T16:36:57;15.02;;;7.93;;